Time;durP1;ratioP1;P1;durP2;ratioP2;P2;SDS_P1;SDS_P2;PMS_P1;PMS_P2;Temp;Humidity;BMP_temperature;BMP_pressure;BME280_temperature;BME280_humidity;BME280_pressure;Samples;Min_cycle;Max_cycle;Signal;HPM_P1;HPM_P2
2022/10/24 00:02:30;;;;;;;0.68;0.68;;;;;;;14.87;100.00;100700.78;10624837;27;20043;-76
2022/10/24 00:07:31;;;;;;;0.93;0.70;;;;;;;14.95;100.00;100690.47;10624672;27;20041;-76
2022/10/24 00:12:33;;;;;;;0.30;0.08;;;;;;;14.97;100.00;100669.72;10625571;27;20062;-77
2022/10/24 00:17:35;;;;;;;0.40;0.28;;;;;;;14.99;100.00;100668.00;10624508;28;20135;-76
2022/10/24 00:22:37;;;;;;;0.20;0.13;;;;;;;15.16;100.00;100642.97;10624400;28;20043;-76
2022/10/24 00:27:39;;;;;;;0.35;0.35;;;;;;;15.02;100.00;100647.25;10625397;28;20039;-77
2022/10/24 00:32:40;;;;;;;0.38;0.20;;;;;;;14.98;100.00;100633.41;10624823;28;20043;-76
2022/10/24 00:37:42;;;;;;;2.42;0.70;;;;;;;15.17;100.00;100615.31;10624100;28;20039;-77
2022/10/24 00:42:45;;;;;;;0.35;0.13;;;;;;;15.13;100.00;100600.56;10624628;28;20456;-75
2022/10/24 00:47:47;;;;;;;0.10;0.10;;;;;;;15.04;100.00;100588.47;10623854;28;20067;-77
2022/10/24 00:52:48;;;;;;;1.08;1.00;;;;;;;15.24;100.00;100572.94;10624841;27;20118;-76
2022/10/24 00:57:57;;;;;;;0.00;0.00;;;;;;;15.27;100.00;100543.53;10632089;27;20126;-77
2022/10/24 01:03:00;;;;;;;0.00;0.00;;;;;;;15.21;100.00;100514.13;10633100;27;20121;-76
2022/10/24 01:08:27;;;;;;;0.40;0.30;;;;;;;15.57;100.00;100479.47;10632675;27;20043;-77
2022/10/24 01:13:50;;;;;;;0.00;0.00;;;;;;;15.51;100.00;100450.06;10632073;27;20043;-76
2022/10/24 01:18:59;;;;;;;0.10;0.10;;;;;;;15.51;100.00;100446.59;10631229;27;20459;-77
2022/10/24 01:24:29;;;;;;;1.25;0.90;;;;;;;15.82;100.00;100424.00;10631744;27;20047;-76
2022/10/24 01:29:46;;;;;;;0.10;0.00;;;;;;;15.67;100.00;100405.91;10631088;27;20363;-75
2022/10/24 01:35:10;;;;;;;1.02;0.10;;;;;;;15.63;100.00;100406.75;10618939;27;20043;-76
2022/10/24 01:40:20;;;;;;;0.25;0.25;;;;;;;15.41;100.00;100412.00;10648520;27;20062;-77
2022/10/24 01:45:29;;;;;;;0.45;0.35;;;;;;;15.44;100.00;100398.16;10631385;27;20039;-76
2022/10/24 01:50:35;;;;;;;0.85;0.85;;;;;;;15.39;100.00;100398.16;10631279;27;20043;-76
2022/10/24 01:55:37;;;;;;;0.00;0.00;;;;;;;15.10;100.00;100406.84;10630413;27;20122;-77
2022/10/24 02:00:41;;;;;;;0.20;0.08;;;;;;;15.04;100.00;100402.53;10629614;27;20050;-76
2022/10/24 02:05:52;;;;;;;1.13;0.38;;;;;;;15.12;100.00;100394.75;10628397;27;20125;-77
2022/10/24 02:10:58;;;;;;;0.25;0.20;;;;;;;15.33;100.00;100390.38;10610793;27;20055;-76
2022/10/24 02:16:01;;;;;;;0.13;0.13;;;;;;;15.34;100.00;100385.19;10611465;27;20059;-75
2022/10/24 02:21:14;;;;;;;0.25;0.15;;;;;;;15.31;100.00;100374.81;10610270;27;20081;-78
2022/10/24 02:26:25;;;;;;;0.10;0.08;;;;;;;15.26;100.00;100371.38;10628518;27;20123;-76
2022/10/24 02:31:34;;;;;;;0.30;0.10;;;;;;;15.40;100.00;100363.56;10609875;27;20494;-77
2022/10/24 02:36:39;;;;;;;0.20;0.20;;;;;;;15.35;100.00;100354.94;10628027;27;20432;-76
2022/10/24 02:41:43;;;;;;;0.22;0.22;;;;;;;15.44;100.00;100339.34;10628458;27;20050;-75
2022/10/24 02:46:46;;;;;;;0.28;0.10;;;;;;;15.43;100.00;100341.91;10627591;27;20057;-77
2022/10/24 02:51:49;;;;;;;0.55;0.43;;;;;;;15.16;100.00;100347.16;10627477;27;20050;-76
2022/10/24 02:56:56;;;;;;;0.10;0.10;;;;;;;15.20;100.00;100348.03;10628415;27;20039;-77
2022/10/24 03:01:58;;;;;;;0.98;0.55;;;;;;;15.28;100.00;100335.03;10628254;27;20408;-77
2022/10/24 03:07:00;;;;;;;0.00;0.00;;;;;;;15.26;100.00;100339.38;10627316;27;20474;-76
2022/10/24 03:12:02;;;;;;;0.00;0.00;;;;;;;15.21;100.00;100337.66;10626636;27;20046;-76
2022/10/24 03:17:03;;;;;;;0.20;0.20;;;;;;;15.49;100.00;100340.16;10608133;27;20065;-76
2022/10/24 03:22:05;;;;;;;0.75;0.10;;;;;;;15.27;100.00;100341.09;10626282;27;20114;-77
2022/10/24 03:27:06;;;;;;;0.08;0.00;;;;;;;15.16;100.00;100339.38;10607660;27;20146;-76
2022/10/24 03:32:08;;;;;;;1.83;0.40;;;;;;;14.91;100.00;100344.63;10607771;27;20136;-76
2022/10/24 03:37:09;;;;;;;0.32;0.22;;;;;;;14.75;100.00;100350.69;10625612;27;20035;-77
2022/10/24 03:42:11;;;;;;;0.00;0.00;;;;;;;15.19;100.00;100336.78;10590289;27;20050;-76
2022/10/24 03:47:13;;;;;;;0.03;0.00;;;;;;;15.03;100.00;100348.94;10606954;27;20440;-76
2022/10/24 03:52:14;;;;;;;0.00;0.00;;;;;;;14.91;100.00;100347.22;10626350;27;20077;-75
2022/10/24 03:57:16;;;;;;;2.08;0.38;;;;;;;14.64;100.00;100352.34;10625664;27;20082;-75
2022/10/24 04:02:17;;;;;;;0.00;0.00;;;;;;;14.58;100.00;100351.50;10624945;27;20131;-76
2022/10/24 04:07:19;;;;;;;0.50;0.40;;;;;;;14.48;100.00;100357.56;10606367;27;20129;-76
2022/10/24 04:12:20;;;;;;;0.98;0.85;;;;;;;14.90;100.00;100355.88;10624711;27;20513;-76
2022/10/24 04:17:22;;;;;;;0.43;0.25;;;;;;;14.83;100.00;100351.53;10624966;27;20428;-75
2022/10/24 04:22:23;;;;;;;0.30;0.05;;;;;;;14.68;100.00;100354.13;10625684;28;20043;-76
2022/10/24 04:27:25;;;;;;;0.20;0.20;;;;;;;14.63;100.00;100353.25;10625868;27;20347;-76
2022/10/24 04:32:29;;;;;;;1.55;0.88;;;;;;;14.70;100.00;100353.28;10633135;27;20427;-75
2022/10/24 04:37:31;;;;;;;0.00;0.00;;;;;;;14.40;100.00;100348.91;10634565;27;20049;-74
2022/10/24 04:42:32;;;;;;;16.65;0.45;;;;;;;14.68;100.00;100331.66;10615895;27;20505;-75
2022/10/24 04:47:34;;;;;;;0.00;0.00;;;;;;;14.85;100.00;100329.06;10632586;27;20046;-75
2022/10/24 04:52:36;;;;;;;0.08;0.03;;;;;;;14.73;100.00;100323.88;10632345;27;20043;-75
2022/10/24 04:57:37;;;;;;;0.00;0.00;;;;;;;14.69;100.00;100335.97;10646962;27;20066;-76
2022/10/24 05:02:39;;;;;;;1.35;0.85;;;;;;;14.78;100.00;100329.06;10623644;27;20541;-76
2022/10/24 05:07:40;;;;;;;0.55;0.32;;;;;;;14.72;100.00;100328.22;10613670;27;20075;-75
2022/10/24 05:12:43;;;;;;;0.32;0.20;;;;;;;14.68;100.00;100330.81;10631598;27;20039;-75
2022/10/24 05:17:45;;;;;;;0.40;0.32;;;;;;;14.85;100.00;100338.56;10631581;27;20480;-76
2022/10/24 05:22:47;;;;;;;0.20;0.10;;;;;;;14.78;100.00;100348.06;10612861;27;20087;-75
2022/10/24 05:27:48;;;;;;;0.03;0.03;;;;;;;14.86;100.00;100351.53;10631120;27;20066;-76
2022/10/24 05:32:50;;;;;;;0.08;0.08;;;;;;;14.97;100.00;100346.31;10630914;27;20113;-75
2022/10/24 05:37:51;;;;;;;0.10;0.05;;;;;;;15.03;100.00;100353.25;10595258;27;20122;-75
2022/10/24 05:42:53;;;;;;;0.10;0.10;;;;;;;14.95;100.00;100362.75;10611622;27;20456;-75
2022/10/24 05:47:55;;;;;;;0.03;0.03;;;;;;;14.87;100.00;100371.41;10611754;27;20123;-76
2022/10/24 05:52:56;;;;;;;0.22;0.10;;;;;;;14.80;100.00;100371.44;10611861;27;20110;-76
2022/10/24 05:57:58;;;;;;;0.00;0.00;;;;;;;14.82;100.00;100362.78;10611368;27;20130;-77
2022/10/24 06:03:00;;;;;;;0.00;0.00;;;;;;;14.73;100.00;100365.38;10629547;27;20434;-77
2022/10/24 06:08:02;;;;;;;0.00;0.00;;;;;;;14.84;100.00;100379.22;10629332;27;20478;-77
2022/10/24 06:13:03;;;;;;;0.25;0.05;;;;;;;14.93;100.00;100367.97;10629183;27;20047;-77
2022/10/24 06:18:05;;;;;;;0.00;0.00;;;;;;;14.65;100.00;100367.06;10628995;27;20439;-78
2022/10/24 06:23:06;;;;;;;0.00;0.00;;;;;;;14.86;100.00;100371.41;10629473;27;20118;-77
2022/10/24 06:28:13;;;;;;;0.00;0.00;;;;;;;14.95;100.00;100360.16;10628335;27;20070;-76
2022/10/24 06:33:15;;;;;;;0.00;0.00;;;;;;;15.11;100.00;100361.88;10628192;27;20371;-76
2022/10/24 06:38:16;;;;;;;0.00;0.00;;;;;;;14.97;100.00;100368.81;10629310;27;20121;-76
2022/10/24 06:43:21;;;;;;;0.00;0.00;;;;;;;15.09;100.00;100368.78;10628002;27;20047;-76
2022/10/24 06:48:22;;;;;;;0.10;0.10;;;;;;;15.22;100.00;100361.88;10609043;27;20050;-77
2022/10/24 06:53:24;;;;;;;0.40;0.13;;;;;;;15.28;100.00;100363.59;10626954;27;20049;-77
2022/10/24 06:58:29;;;;;;;0.00;0.00;;;;;;;15.18;100.00;100373.97;10610196;27;20046;-77
2022/10/24 07:03:31;;;;;;;0.05;0.05;;;;;;;15.27;100.00;100382.63;10610095;27;20526;-76
2022/10/24 07:08:32;;;;;;;0.08;0.00;;;;;;;15.21;100.00;100394.75;10608599;27;20465;-76
2022/10/24 07:13:34;;;;;;;0.00;0.00;;;;;;;15.18;100.00;100399.94;10626891;27;20043;-76
2022/10/24 07:18:36;;;;;;;0.45;0.28;;;;;;;15.40;100.00;100405.09;10626411;27;20071;-77
2022/10/24 07:23:37;;;;;;;0.00;0.00;;;;;;;15.43;100.00;100407.69;10607917;27;20051;-77
2022/10/24 07:28:39;;;;;;;0.00;0.00;;;;;;;15.63;100.00;100399.84;10627121;27;20367;-77
2022/10/24 07:33:41;;;;;;;0.38;0.38;;;;;;;15.81;100.00;100417.09;10625796;27;20047;-75
2022/10/24 07:38:43;;;;;;;2.10;0.55;;;;;;;15.87;100.00;100424.00;10625735;27;20067;-76
2022/10/24 07:43:45;;;;;;;0.00;0.00;;;;;;;16.34;100.00;100403.91;10625564;27;20421;-78
2022/10/24 07:48:50;;;;;;;2.90;0.35;;;;;;;16.54;100.00;100418.50;10625297;27;20045;-77
2022/10/24 07:53:51;;;;;;;0.10;0.00;;;;;;;17.01;100.00;100408.63;10626676;27;20043;-77
2022/10/24 07:58:54;;;;;;;0.90;0.30;;;;;;;16.44;100.00;100423.75;10614865;27;20135;-77
2022/10/24 08:10:49;;;;;;;0.00;0.00;;;;;;;17.04;100.00;100425.09;10583434;28;20043;-78
2022/10/24 08:15:51;;;;;;;0.00;0.00;;;;;;;17.08;100.00;100437.22;10606031;28;20425;-77
2022/10/24 08:20:57;;;;;;;0.00;0.00;;;;;;;16.38;100.00;100429.00;10637075;28;20051;-77
2022/10/24 08:25:59;;;;;;;0.00;0.00;;;;;;;16.11;100.00;100441.28;10634902;28;20071;-76
2022/10/24 08:31:07;;;;;;;0.00;0.00;;;;;;;16.05;100.00;100441.28;10607218;28;20150;-78
2022/10/24 08:37:14;;;;;;;0.00;0.00;;;;;;;15.89;100.00;100444.81;10606066;28;20474;-77
2022/10/24 08:42:17;;;;;;;0.17;0.17;;;;;;;15.94;100.00;100450.84;10604885;28;20055;-76
2022/10/24 08:53:52;;;;;;;0.00;0.00;;;;;;;15.80;100.00;100472.50;10580798;28;20058;-77
2022/10/24 08:58:55;;;;;;;0.15;0.15;;;;;;;15.77;100.00;100482.91;10581500;28;20089;-78
2022/10/24 09:04:07;;;;;;;0.20;0.20;;;;;;;16.14;100.00;100472.41;10563743;28;20046;-77
2022/10/24 09:09:45;;;;;;;0.10;0.10;;;;;;;16.10;100.00;100481.13;10563115;28;20127;-76
2022/10/24 09:14:56;;;;;;;0.08;0.08;;;;;;;16.03;100.00;100489.81;10534700;28;20071;-75
2022/10/24 09:20:19;;;;;;;0.80;0.10;;;;;;;16.31;100.00;100487.94;10612174;27;20054;-78
2022/10/24 09:25:24;;;;;;;0.00;0.00;;;;;;;16.09;100.00;100505.38;10631102;27;20043;-78
2022/10/24 09:30:26;;;;;;;0.00;0.00;;;;;;;16.21;100.00;100508.78;10612579;27;20057;-77
2022/10/24 09:35:37;;;;;;;0.43;0.25;;;;;;;16.34;100.00;100505.28;10612393;27;20474;-76
2022/10/24 09:40:39;;;;;;;2.90;0.13;;;;;;;17.17;100.00;100513.47;10630490;27;20462;-77
2022/10/24 09:45:59;;;;;;;0.25;0.10;;;;;;;17.35;100.00;100508.13;10589480;27;20375;-77
2022/10/24 09:51:02;;;;;;;0.00;0.00;;;;;;;17.84;100.00;100508.53;10596823;27;20467;-77
2022/10/24 09:56:11;;;;;;;0.00;0.00;;;;;;;17.69;100.00;100523.44;10607167;27;20491;-78
2022/10/24 10:01:12;;;;;;;0.20;0.20;;;;;;;17.96;100.00;100525.81;10586929;28;20040;-77
2022/10/24 10:06:27;;;;;;;0.00;0.00;;;;;;;18.18;100.00;100529.06;10555360;27;20088;-77
2022/10/24 10:11:31;;;;;;;0.00;0.00;;;;;;;17.46;100.00;100530.63;10598091;27;20459;-76
2022/10/24 10:16:38;;;;;;;0.00;0.00;;;;;;;17.91;100.00;100526.69;10582930;27;20054;-77
2022/10/24 10:22:01;;;;;;;1.67;1.02;;;;;;;17.40;100.00;100536.75;10593481;27;20134;-78
2022/10/24 10:27:40;;;;;;;0.10;0.10;;;;;;;18.41;100.00;100538.34;10584947;28;20070;-76
2022/10/24 10:32:48;;;;;;;0.17;0.10;;;;;;;17.57;100.00;100544.41;10605976;27;20104;-77
2022/10/24 10:38:16;;;;;;;0.00;0.00;;;;;;;17.21;100.00;100552.47;10600328;27;20040;-76
2022/10/24 10:44:01;;;;;;;0.00;0.00;;;;;;;17.00;100.00;100558.72;10588886;27;20049;-77
2022/10/24 10:56:21;;;;;;;0.60;0.08;;;;;;;16.81;100.00;100574.38;10584777;28;20027;-77
2022/10/24 11:01:41;;;;;;;0.82;0.17;;;;;;;16.94;100.00;100575.22;10585336;28;20059;-77
2022/10/24 11:07:19;;;;;;;0.00;0.00;;;;;;;17.09;100.00;100584.66;10589076;27;20446;-76
2022/10/24 11:12:28;;;;;;;1.85;0.22;;;;;;;17.10;100.00;100586.41;10608350;27;20117;-77
2022/10/24 11:17:41;;;;;;;0.35;0.35;;;;;;;17.09;100.00;100592.47;10607791;27;20105;-76
2022/10/24 11:23:04;;;;;;;0.22;0.03;;;;;;;17.00;100.00;100605.56;10586748;27;20043;-77
2022/10/24 11:28:15;;;;;;;0.08;0.08;;;;;;;17.19;100.00;100598.50;10583540;28;20074;-75
2022/10/24 11:33:41;;;;;;;0.28;0.10;;;;;;;17.20;100.00;100601.97;10615064;27;20078;-76
2022/10/24 11:38:54;;;;;;;0.10;0.10;;;;;;;17.10;100.00;100602.00;10613834;27;20074;-76
2022/10/24 11:44:01;;;;;;;0.45;0.20;;;;;;;17.21;100.00;100603.69;10592450;27;20070;-76
2022/10/24 11:49:24;;;;;;;0.20;0.10;;;;;;;17.18;100.00;100619.31;10606810;27;20039;-78
2022/10/24 11:54:40;;;;;;;2.05;0.22;;;;;;;16.98;100.00;100617.72;10603115;27;20387;-78
2022/10/24 11:59:42;;;;;;;0.00;0.00;;;;;;;16.85;100.00;100632.47;10547435;28;20046;-77
2022/10/24 12:04:54;;;;;;;2.17;0.43;;;;;;;16.69;100.00;100639.50;10613792;27;20039;-77
2022/10/24 12:10:31;;;;;;;1.02;0.40;;;;;;;16.97;100.00;100628.97;10603009;27;20470;-76
2022/10/24 12:16:13;;;;;;;0.15;0.08;;;;;;;16.92;100.00;100638.53;10583366;28;20387;-76
2022/10/24 12:21:19;;;;;;;0.43;0.10;;;;;;;16.74;100.00;100648.13;10593893;28;20487;-77
2022/10/24 12:26:29;;;;;;;0.00;0.00;;;;;;;16.75;100.00;100647.25;10563714;28;20054;-76
2022/10/24 12:31:37;;;;;;;4.47;0.13;;;;;;;16.61;100.00;100647.31;10581559;28;20097;-76
2022/10/24 12:37:00;;;;;;;1.23;0.10;;;;;;;16.37;100.00;100656.03;10582085;28;20039;-77
2022/10/24 12:42:03;;;;;;;0.32;0.00;;;;;;;16.20;100.00;100673.38;10581557;28;20104;-77
2022/10/24 12:47:25;;;;;;;0.10;0.10;;;;;;;16.19;100.00;100693.31;10578452;28;20489;-77
2022/10/24 12:53:00;;;;;;;0.00;0.00;;;;;;;15.26;100.00;100715.66;10591967;27;20043;-75
2022/10/24 12:58:20;;;;;;;0.00;0.00;;;;;;;15.26;100.00;100718.25;10589656;28;20075;-77
2022/10/24 13:03:58;;;;;;;0.00;0.00;;;;;;;15.30;100.00;100777.13;10624486;27;20442;-78
2022/10/24 13:09:23;;;;;;;1.17;0.28;;;;;;;15.66;100.00;100753.00;10623123;27;20130;-76
2022/10/24 13:14:48;;;;;;;0.32;0.10;;;;;;;15.49;100.00;100736.50;10631944;27;20051;-77
2022/10/24 13:20:15;;;;;;;1.38;0.13;;;;;;;15.25;100.00;100766.72;10635385;27;20053;-77
2022/10/24 13:25:33;;;;;;;0.00;0.00;;;;;;;15.13;100.00;100808.16;10631543;27;20114;-76
2022/10/24 13:30:34;;;;;;;0.00;0.00;;;;;;;14.92;100.00;100859.06;10631118;27;20486;-77
2022/10/24 13:35:36;;;;;;;0.10;0.10;;;;;;;14.84;100.00;100887.53;10593540;27;20035;-77
2022/10/24 13:40:42;;;;;;;0.00;0.00;;;;;;;14.82;100.00;100897.03;10642676;27;20134;-76
2022/10/24 13:46:03;;;;;;;0.10;0.05;;;;;;;15.32;100.00;100880.09;10653330;27;20047;-76
2022/10/24 13:51:06;;;;;;;0.00;0.00;;;;;;;15.40;100.00;100867.13;10651136;27;20505;-77
2022/10/24 13:56:10;;;;;;;0.40;0.40;;;;;;;15.44;100.00;100868.91;10630719;27;20043;-76
2022/10/24 14:01:14;;;;;;;0.10;0.10;;;;;;;15.41;100.00;100868.03;10628537;27;20070;-76
2022/10/24 14:06:23;;;;;;;0.10;0.00;;;;;;;15.50;100.00;100844.69;10611408;27;20466;-77
2022/10/24 14:11:26;;;;;;;0.05;0.05;;;;;;;15.67;100.00;100829.19;10610687;27;20035;-77
2022/10/24 14:16:30;;;;;;;0.10;0.10;;;;;;;15.80;100.00;100825.78;10611028;27;20118;-77
2022/10/24 14:21:39;;;;;;;2.72;0.30;;;;;;;15.80;100.00;100804.09;10610913;27;20509;-77
2022/10/24 14:26:41;;;;;;;0.03;0.03;;;;;;;15.75;100.00;100754.75;10610365;27;20096;-76
2022/10/24 14:31:44;;;;;;;0.17;0.13;;;;;;;15.81;100.00;100746.97;10628346;27;20479;-76
2022/10/24 14:36:45;;;;;;;0.10;0.10;;;;;;;15.69;100.00;100745.22;10627812;27;20094;-76
2022/10/24 14:41:47;;;;;;;0.22;0.22;;;;;;;15.76;100.00;100738.28;10627904;27;20043;-77
2022/10/24 14:47:02;;;;;;;0.00;0.00;;;;;;;15.62;100.00;100760.78;10609610;27;20051;-76
2022/10/24 14:52:13;;;;;;;0.10;0.10;;;;;;;15.39;100.00;100782.31;10627534;27;20077;-77
2022/10/24 14:57:20;;;;;;;0.55;0.25;;;;;;;15.59;100.00;100769.44;10627433;27;20122;-77
2022/10/24 15:02:31;;;;;;;0.10;0.00;;;;;;;15.66;100.00;100778.13;10627114;27;20108;-77
2022/10/24 15:07:38;;;;;;;1.48;0.20;;;;;;;15.69;100.00;100791.09;10627046;27;20045;-77
2022/10/24 15:12:50;;;;;;;0.00;0.00;;;;;;;15.75;100.00;100785.91;10599475;27;20071;-77
2022/10/24 15:17:57;;;;;;;0.00;0.00;;;;;;;15.68;100.00;100795.44;10584019;28;20038;-76
2022/10/24 15:23:00;;;;;;;0.00;0.00;;;;;;;15.54;100.00;100826.53;10554862;27;20047;-77
2022/10/24 15:28:04;;;;;;;0.10;0.05;;;;;;;15.47;100.00;100865.47;10625985;27;20043;-78
2022/10/24 15:33:06;;;;;;;0.00;0.00;;;;;;;15.62;100.00;100870.72;10626092;27;20078;-76
2022/10/24 15:38:15;;;;;;;0.00;0.00;;;;;;;15.51;100.00;100901.84;10607897;27;20039;-77
2022/10/24 15:43:18;;;;;;;0.00;0.00;;;;;;;15.39;100.00;100927.69;10607533;27;20079;-77
2022/10/24 15:48:20;;;;;;;0.08;0.08;;;;;;;15.19;100.00;100918.06;10607194;27;20096;-77
2022/10/24 15:53:21;;;;;;;0.55;0.30;;;;;;;15.49;100.00;100802.28;10596030;27;20077;-76
2022/10/24 15:58:25;;;;;;;0.32;0.30;;;;;;;15.58;100.00;100756.44;10582664;28;20035;-76
2022/10/24 16:10:26;;;;;;;0.38;0.38;;;;;;;15.61;100.00;100754.72;10581763;28;20107;-77
2022/10/24 16:15:33;;;;;;;0.03;0.00;;;;;;;15.50;100.00;100775.47;10582410;28;20044;-77
2022/10/24 16:20:37;;;;;;;0.00;0.00;;;;;;;14.79;100.00;100920.34;10583553;27;20538;-78
2022/10/24 16:25:38;;;;;;;1.35;0.30;;;;;;;14.32;100.00;101016.63;10571428;28;20077;-77
2022/10/24 16:30:40;;;;;;;0.00;0.00;;;;;;;14.11;100.00;101069.91;10605881;28;20457;-76
2022/10/24 16:35:46;;;;;;;0.35;0.35;;;;;;;13.92;100.00;101111.06;10624298;28;20058;-77
2022/10/24 16:40:47;;;;;;;0.00;0.00;;;;;;;13.75;100.00;101128.03;10605723;28;20050;-77
2022/10/24 16:45:59;;;;;;;0.08;0.08;;;;;;;13.66;100.00;101107.19;10606393;28;20043;-76
2022/10/24 16:51:01;;;;;;;;;;;;;;;13.44;100.00;101123.22;10580745;28;20047;-77
2022/10/24 16:56:03;;;;;;;0.00;0.00;;;;;;;13.27;100.00;101133.25;10616773;28;19973;-77
2022/10/24 17:01:11;;;;;;;0.00;0.00;;;;;;;13.13;100.00;101147.66;10623373;28;20035;-77
2022/10/24 17:06:13;;;;;;;0.00;0.00;;;;;;;12.93;100.00;101155.84;10605498;28;20054;-77
2022/10/24 17:11:14;;;;;;;0.30;0.30;;;;;;;12.82;100.00;101163.41;10624587;28;20039;-77
2022/10/24 17:16:36;;;;;;;0.00;0.00;;;;;;;12.73;100.00;101172.69;10623612;28;20451;-77
2022/10/24 17:21:37;;;;;;;0.65;0.22;;;;;;;12.57;100.00;101187.00;10623534;28;20042;-77
2022/10/24 17:26:40;;;;;;;0.00;0.00;;;;;;;12.50;100.00;101211.81;10608469;28;20122;-76
2022/10/24 17:31:42;;;;;;;0.00;0.00;;;;;;;12.44;100.00;101219.44;10562685;28;20047;-76
2022/10/24 17:36:57;;;;;;;0.40;0.28;;;;;;;12.56;100.00;101211.94;10584722;28;20119;-76
2022/10/24 17:41:59;;;;;;;0.45;0.10;;;;;;;12.41;100.00;101206.44;10588050;28;20036;-76
2022/10/24 17:47:00;;;;;;;1.52;0.52;;;;;;;12.35;100.00;101218.38;10569816;28;20506;-76
2022/10/24 17:52:02;;;;;;;0.32;0.20;;;;;;;12.28;100.00;101216.47;10587491;28;20048;-76
2022/10/24 17:57:06;;;;;;;0.45;0.30;;;;;;;12.26;100.00;101214.69;10587658;28;20063;-76
2022/10/24 18:02:12;;;;;;;0.40;0.40;;;;;;;12.15;100.00;101214.44;10592200;27;20088;-76
2022/10/24 18:07:14;;;;;;;0.28;0.20;;;;;;;12.09;100.00;101230.66;10630013;27;20486;-77
2022/10/24 18:12:15;;;;;;;0.70;0.32;;;;;;;12.13;100.00;101223.84;10629367;27;20122;-76
2022/10/24 18:17:17;;;;;;;5.00;1.98;;;;;;;11.65;100.00;101223.50;10611177;27;20403;-77
2022/10/24 18:22:19;;;;;;;0.32;0.32;;;;;;;11.36;100.00;101238.19;10593684;27;20074;-76
2022/10/24 18:27:21;;;;;;;0.60;0.47;;;;;;;11.82;100.00;101254.91;10610835;27;20465;-76
2022/10/24 18:32:23;;;;;;;0.50;0.22;;;;;;;12.06;100.00;101261.59;10610239;27;20566;-77
2022/10/24 18:44:29;;;;;;;0.03;0.03;;;;;;;12.01;100.00;101243.41;10535035;28;20496;-76
2022/10/24 18:49:32;;;;;;;1.08;0.57;;;;;;;12.27;100.00;101231.97;10502181;28;20033;-76
2022/10/24 18:54:37;;;;;;;0.10;0.10;;;;;;;12.29;100.00;101220.81;10501347;28;20407;-76
2022/10/24 18:59:38;;;;;;;1.60;1.25;;;;;;;12.24;100.00;101214.69;10516976;28;20392;-76
2022/10/24 19:04:42;;;;;;;0.52;0.32;;;;;;;12.38;100.00;101213.28;10541401;28;20510;-76
2022/10/24 19:09:44;;;;;;;0.00;0.00;;;;;;;12.60;100.00;101218.94;10510504;28;20123;-77
2022/10/24 19:14:46;;;;;;;0.05;0.05;;;;;;;12.61;100.00;101214.63;10499272;28;20044;-76
2022/10/24 19:19:47;;;;;;;0.40;0.10;;;;;;;12.62;100.00;101216.41;10500502;28;20060;-76
2022/10/24 19:24:49;;;;;;;7.63;0.38;;;;;;;12.57;100.00;101224.03;10499893;28;20070;-77
2022/10/24 19:29:51;;;;;;;0.10;0.00;;;;;;;12.53;100.00;101232.56;10481683;28;20044;-77
2022/10/24 19:34:52;;;;;;;1.45;1.30;;;;;;;12.50;100.00;101243.72;10498111;28;20075;-77
2022/10/24 19:39:54;;;;;;;0.10;0.10;;;;;;;12.59;100.00;101253.38;10497905;28;20036;-77
2022/10/24 19:44:55;;;;;;;0.10;0.10;;;;;;;12.67;100.00;101257.03;10560109;28;20058;-76
2022/10/24 19:49:57;;;;;;;0.57;0.22;;;;;;;12.50;100.00;101263.50;10614598;27;20039;-76
2022/10/24 19:54:58;;;;;;;0.28;0.25;;;;;;;12.54;100.00;101275.69;10625609;27;20058;-76
2022/10/24 20:00:00;;;;;;;0.00;0.00;;;;;;;12.59;100.00;101271.47;10624354;27;20046;-78
2022/10/24 20:05:01;;;;;;;0.00;0.00;;;;;;;12.59;100.00;101268.91;10606718;27;20482;-75
2022/10/24 20:10:03;;;;;;;0.20;0.17;;;;;;;12.47;100.00;101268.63;10625200;27;20508;-76
2022/10/24 20:15:05;;;;;;;0.10;0.10;;;;;;;12.55;100.00;101277.41;10624647;27;20408;-76
2022/10/24 20:20:10;;;;;;;0.00;0.00;;;;;;;12.78;100.00;101274.47;10618080;27;20077;-76
2022/10/24 20:25:12;;;;;;;5.38;0.35;;;;;;;13.00;100.00;101261.19;10624433;28;20130;-76
2022/10/24 20:30:13;;;;;;;0.00;0.00;;;;;;;13.07;100.00;101256.16;10603394;28;20070;-79
2022/10/24 20:35:15;;;;;;;0.13;0.13;;;;;;;13.20;100.00;101246.94;10621603;28;20063;-77
2022/10/24 20:40:17;;;;;;;0.30;0.30;;;;;;;13.25;100.00;101246.19;10615560;27;20043;-79
2022/10/24 20:45:18;;;;;;;2.13;1.10;;;;;;;13.22;100.00;101222.81;10591145;28;20043;-79
2022/10/24 20:50:23;;;;;;;4.90;2.17;;;;;;;13.17;100.00;101227.03;10603097;28;20082;-78
2022/10/24 20:55:25;;;;;;;0.52;0.45;;;;;;;13.17;100.00;101227.94;10621303;28;20130;-78
2022/10/24 21:00:43;;;;;;;0.00;0.00;;;;;;;13.22;100.00;101235.75;10613321;28;20126;-79
2022/10/24 21:05:46;;;;;;;3.03;0.13;;;;;;;13.10;100.00;101236.41;10594674;28;20344;-78
2022/10/24 21:10:47;;;;;;;8.10;1.08;;;;;;;13.10;100.00;101248.44;10624524;27;20039;-79
2022/10/24 21:15:55;;;;;;;0.15;0.10;;;;;;;13.19;100.00;101253.81;10628510;27;20070;-78
2022/10/24 21:20:57;;;;;;;0.00;0.00;;;;;;;13.12;100.00;101262.31;10630973;27;20043;-79
2022/10/24 21:26:00;;;;;;;0.70;0.10;;;;;;;13.17;100.00;101269.31;10614335;27;20047;-78
2022/10/24 21:31:08;;;;;;;0.00;0.00;;;;;;;13.12;100.00;101270.91;10628401;27;20482;-80
2022/10/24 21:36:12;;;;;;;0.10;0.10;;;;;;;13.08;100.00;101283.75;10609367;27;20115;-79
2022/10/24 21:41:14;;;;;;;0.00;0.00;;;;;;;13.06;100.00;101285.47;10622295;27;20126;-79
2022/10/24 21:46:18;;;;;;;0.32;0.32;;;;;;;12.97;100.00;101299.94;10609043;27;20059;-79
2022/10/24 21:51:28;;;;;;;0.20;0.10;;;;;;;12.84;100.00;101310.84;10602298;27;20045;-79
2022/10/24 21:56:33;;;;;;;5.88;0.32;;;;;;;12.76;100.00;101322.72;10608390;27;20059;-79
2022/10/24 22:01:36;;;;;;;0.00;0.00;;;;;;;12.72;100.00;101336.38;10626132;27;20035;-79
2022/10/24 22:06:38;;;;;;;0.15;0.15;;;;;;;12.63;100.00;101350.84;10618391;27;20429;-79
2022/10/24 22:11:40;;;;;;;0.25;0.10;;;;;;;12.62;100.00;101356.84;10588002;27;20071;-79
2022/10/24 22:16:42;;;;;;;0.40;0.20;;;;;;;12.53;100.00;101356.63;10601508;27;20051;-79
2022/10/24 22:21:46;;;;;;;0.10;0.03;;;;;;;12.46;100.00;101365.06;10606802;27;20034;-78
2022/10/24 22:26:49;;;;;;;0.00;0.00;;;;;;;12.49;100.00;101362.53;10605276;27;20059;-79
2022/10/24 22:31:52;;;;;;;0.00;0.00;;;;;;;12.50;100.00;101364.28;10618004;27;20126;-78
2022/10/24 22:37:09;;;;;;;0.45;0.10;;;;;;;12.59;100.00;101372.28;10593632;27;20154;-78
2022/10/24 22:42:13;;;;;;;0.00;0.00;;;;;;;12.61;100.00;101370.63;10607120;27;20383;-77
2022/10/24 22:47:43;;;;;;;0.07;0.00;;;;;;;12.68;100.00;101371.63;10605423;27;20513;-78
2022/10/24 22:52:45;;;;;;;0.30;0.15;;;;;;;12.73;100.00;101382.97;10605661;27;20047;-78
2022/10/24 22:57:47;;;;;;;0.20;0.15;;;;;;;12.74;100.00;101386.44;10597619;27;20031;-78
2022/10/24 23:02:54;;;;;;;0.63;0.55;;;;;;;12.83;100.00;101397.00;10606732;27;20156;-78
2022/10/24 23:08:10;;;;;;;0.00;0.00;;;;;;;12.77;100.00;101417.53;10624089;27;20135;-78
2022/10/24 23:13:12;;;;;;;0.00;0.00;;;;;;;12.73;100.00;101437.28;10609250;27;20041;-79
2022/10/24 23:18:15;;;;;;;0.47;0.22;;;;;;;12.72;100.00;101455.31;10615996;27;20091;-79
2022/10/24 23:23:21;;;;;;;0.00;0.00;;;;;;;12.63;100.00;101461.97;10623539;27;20050;-79
2022/10/24 23:28:42;;;;;;;0.10;0.10;;;;;;;12.60;100.00;101477.44;10622941;27;20038;-79
2022/10/24 23:33:44;;;;;;;0.70;0.10;;;;;;;12.58;100.00;101486.84;10599237;27;20445;-79
2022/10/24 23:38:46;;;;;;;0.32;0.15;;;;;;;12.56;100.00;101485.91;10601699;27;20131;-79
2022/10/24 23:43:47;;;;;;;0.75;0.20;;;;;;;12.53;100.00;101496.19;10614650;27;20100;-79
2022/10/24 23:48:52;;;;;;;0.88;0.55;;;;;;;12.41;100.00;101496.72;10583183;27;20050;-78